首页
METAR-TAF:

METAR-TAF

机场 :

Dryden, 安大略省, 加拿大

纬度: 49-50N, 经度: 092-45W, 海拔: 413米

当前天气观测

该预报发布于17分钟前的04:00 UTC
风速3节,风向北转西北,在西北北转东北之间变化
温度 10°C
湿度 76%
气压 1013 hPa
能見度: 14.5公里
阴天层高于8100英尺

METAR: CYHD 280400Z AUTO 34003KT 320V020 9SM OVC081 10/06 A2991 RMK SLP141

时间: 23:17 (04:17 UTC)

预报

该预报发布于2小时和37分钟前的01:40 UTC
预报有效从28日的 02点(UTC)到 28日的 14点(UTC)
风速8节,风向西北
能見度: 10公里
散云层高于4000英尺
多云层高于8000英尺
短暂存在
从 28日的 02点(UTC)到 28日的 08点(UTC)
能見度: 10公里
多云层高于4000英尺
阴天层高于8000英尺
小阵雨
从 28日的 0800点(UTC)
风速6节,风向
能見度: 8.0公里
多云层高于1200英尺
阴天层高于6000英尺
小阵雨, 轻雾
短暂存在
从 28日的 08点(UTC)到 28日的 10点(UTC)
能見度: 10公里
散云层高于1200英尺
多云层高于6000英尺
从 28日的 1000点(UTC)
风速8节,风向
能見度: 8.0公里
阴天层高于800英尺
小阵雨, 轻雾
短暂存在
从 28日的 10点(UTC)到 28日的 14点(UTC)
能見度: 10公里
多云层高于1000英尺
阴天层高于4000英尺

TAF: CYHD 280140Z 2802/2814 32008KT P6SM SCT040 BKN080 TEMPO 2802/2808 P6SM -SHRA BKN040 OVC080 FM280800 36006KT 5SM -SHRA BR BKN012 OVC060 TEMPO 2808/2810 P6SM NSW SCT012 BKN060 FM281000 36008KT 5SM -SHRA BR OVC008 TEMPO 2810/2814 P6SM NSW BKN010 OVC040 RMK FCST BASED ON AUTO OBS. NXT FCST BY 280800Z

超过4000个机场的气象观测和天气预报(METAR&TAF报告)。

可查询的气象台以黄色和红色小点在地图上表示。

将鼠标移到小点上方,可查看气象台名称。

然后点击查看天气观测和预报。

如需切换地图:点击带黑十字的绿色按钮放大地图;点击带横线的绿色按钮缩小地图;或者点击绿色箭头查看邻近地区的地图。


METAR-TAF: